Time;durP1;ratioP1;P1;durP2;ratioP2;P2;SDS_P1;SDS_P2;PMS_P1;PMS_P2;Temp;Humidity;BMP_temperature;BMP_pressure;BME280_temperature;BME280_humidity;BME280_pressure;Samples;Min_cycle;Max_cycle;Signal;HPM_P1;HPM_P2
2022/12/01 00:00:12;;;;;;;23.33;11.90;;;;;;;5.67;73.47;100153.38;340898;29;1722;-73
2022/12/01 00:00:24;;;;;;;24.73;12.05;;;;;;;5.66;72.73;100151.66;341756;28;1310;-71
2022/12/01 00:00:36;;;;;;;25.40;12.18;;;;;;;5.64;72.43;100155.97;342624;28;1098;-71
2022/12/01 00:00:57;;;;;;;24.23;12.10;;;;;;;5.38;73.19;100151.78;342191;28;734;-71
2022/12/01 00:01:11;;;;;;;24.73;12.25;;;;;;;5.46;72.74;100155.19;342331;28;1300;-71
2022/12/01 00:01:24;;;;;;;23.65;12.15;;;;;;;5.47;72.35;100154.28;342028;28;1296;-71
2022/12/01 00:01:35;;;;;;;23.98;12.13;;;;;;;5.45;72.76;100158.59;342481;28;1236;-71
2022/12/01 00:01:48;;;;;;;25.80;12.15;;;;;;;5.43;72.81;100157.75;341961;28;1898;-72
2022/12/01 00:02:00;;;;;;;26.70;12.05;;;;;;;5.41;72.61;100151.75;341528;28;1791;-72
2022/12/01 00:02:12;;;;;;;25.50;11.88;;;;;;;5.48;72.92;100150.03;342855;28;1317;-72
2022/12/01 00:02:24;;;;;;;24.58;11.82;;;;;;;5.51;73.00;100153.41;343443;28;1379;-72
2022/12/01 00:02:36;;;;;;;23.95;12.05;;;;;;;5.57;72.67;100155.13;344221;28;733;-72
2022/12/01 00:02:49;;;;;;;23.83;12.23;;;;;;;5.63;72.67;100151.66;343775;28;1288;-72
2022/12/01 00:03:01;;;;;;;23.40;12.00;;;;;;;5.66;72.55;100146.50;343097;28;1762;-73
2022/12/01 00:03:13;;;;;;;23.52;11.65;;;;;;;5.68;72.42;100155.09;343416;28;1648;-73
2022/12/01 00:03:28;;;;;;;23.52;12.10;;;;;;;5.66;72.43;100151.66;344091;28;1204;-73
2022/12/01 00:03:40;;;;;;;24.23;12.23;;;;;;;5.58;72.47;100155.13;343742;28;1215;-73
2022/12/01 00:03:53;;;;;;;24.35;11.93;;;;;;;5.64;72.97;100148.25;342403;28;1047;-73
2022/12/01 00:04:05;;;;;;;25.15;12.18;;;;;;;5.67;72.23;100153.38;342522;28;1071;-73
2022/12/01 00:04:17;;;;;;;24.50;11.98;;;;;;;5.66;72.10;100151.66;342266;28;1336;-73
2022/12/01 00:04:29;;;;;;;24.27;12.35;;;;;;;5.66;72.25;100147.34;344074;28;846;-73
2022/12/01 00:04:41;;;;;;;23.52;12.40;;;;;;;5.71;72.26;100149.91;343457;28;1329;-73
2022/12/01 00:04:53;;;;;;;23.30;11.90;;;;;;;5.65;72.13;100150.78;343606;28;1000;-73
2022/12/01 00:05:05;;;;;;;22.92;11.70;;;;;;;5.64;72.26;100153.41;343931;28;1643;-73
2022/12/01 00:05:17;;;;;;;22.17;11.73;;;;;;;5.66;72.32;100159.41;342645;28;1270;-73
2022/12/01 00:05:30;;;;;;;22.63;12.05;;;;;;;5.62;72.89;100155.13;343713;28;1166;-73
2022/12/01 00:05:42;;;;;;;23.65;12.40;;;;;;;5.60;72.56;100153.41;343808;28;1046;-73
2022/12/01 00:06:06;;;;;;;23.45;11.88;;;;;;;5.62;72.59;100155.13;342375;28;1068;-73
2022/12/01 00:06:20;;;;;;;24.15;11.60;;;;;;;5.32;72.17;100154.38;340648;28;1221;-73
2022/12/01 00:06:32;;;;;;;23.10;11.70;;;;;;;5.26;73.29;100156.97;340238;29;1655;-73
2022/12/01 00:06:44;;;;;;;22.90;11.77;;;;;;;5.31;73.49;100158.69;341014;29;1241;-73
2022/12/01 00:06:56;;;;;;;23.77;12.13;;;;;;;5.40;73.20;100157.78;341113;29;1071;-73
2022/12/01 00:07:08;;;;;;;23.88;12.23;;;;;;;5.47;73.25;100150.88;341018;29;1195;-73
2022/12/01 00:07:20;;;;;;;23.13;12.65;;;;;;;5.51;73.10;100150.00;340262;29;2111;-73
2022/12/01 00:07:32;;;;;;;25.42;12.75;;;;;;;5.52;73.37;100154.31;341181;29;1945;-73
2022/12/01 00:07:47;;;;;;;26.88;12.88;;;;;;;5.47;73.11;100154.28;341006;29;1024;-73
2022/12/01 00:07:59;;;;;;;25.92;12.85;;;;;;;5.52;73.32;100157.72;342116;28;1160;-71
2022/12/01 00:08:11;;;;;;;24.35;12.43;;;;;;;5.55;73.52;100157.72;341282;28;1724;-71
2022/12/01 00:08:23;;;;;;;22.75;12.20;;;;;;;5.55;73.16;100156.84;341824;28;1702;-71
2022/12/01 00:08:36;;;;;;;23.88;12.10;;;;;;;5.52;73.82;100155.16;339711;28;3486;-73
2022/12/01 00:10:27;;;;;;;23.88;12.40;;;;;;;5.74;73.42;100155.06;342612;28;1329;-72
2022/12/01 00:10:39;;;;;;;23.08;12.10;;;;;;;5.80;72.99;100149.88;342923;28;3466;-73
2022/12/01 00:10:51;;;;;;;23.83;12.18;;;;;;;5.76;73.09;100153.34;342475;28;1970;-73
2022/12/01 00:11:09;;;;;;;24.58;12.38;;;;;;;5.78;73.58;100155.03;342633;28;1336;-73
2022/12/01 00:11:21;;;;;;;25.13;12.63;;;;;;;5.76;72.84;100148.19;343205;28;1360;-73
2022/12/01 00:11:34;;;;;;;25.05;12.18;;;;;;;5.78;73.10;100154.19;342199;28;1471;-73
2022/12/01 00:11:47;;;;;;;25.25;11.90;;;;;;;5.79;73.26;100149.03;342126;28;1894;-73
2022/12/01 00:11:59;;;;;;;25.00;12.10;;;;;;;5.85;73.11;100153.28;342168;28;1258;-73
2022/12/01 00:12:11;;;;;;;25.45;12.02;;;;;;;5.88;73.23;100153.28;342547;28;1323;-73
2022/12/01 00:12:23;;;;;;;23.17;11.47;;;;;;;5.89;73.17;100154.97;340995;29;1669;-73
2022/12/01 00:12:35;;;;;;;22.95;11.70;;;;;;;5.82;72.69;100148.16;341036;29;1062;-73
2022/12/01 00:12:47;;;;;;;24.65;12.30;;;;;;;5.85;72.46;100152.44;341309;29;881;-73
2022/12/01 00:13:01;;;;;;;25.83;12.60;;;;;;;5.81;72.40;100151.56;340925;29;1288;-73
2022/12/01 00:13:13;;;;;;;25.63;12.52;;;;;;;5.75;72.37;100146.44;342383;28;1072;-73
2022/12/01 00:13:25;;;;;;;25.30;12.32;;;;;;;5.76;72.76;100148.19;342186;28;1448;-73
2022/12/01 00:13:37;;;;;;;25.23;12.65;;;;;;;5.74;72.79;100155.06;342716;28;1250;-73
2022/12/01 00:13:49;;;;;;;24.35;12.40;;;;;;;5.74;72.72;100155.06;343316;28;1832;-73
2022/12/01 00:14:02;;;;;;;25.13;12.38;;;;;;;5.68;72.56;100155.94;344036;28;752;-73
2022/12/01 00:14:15;;;;;;;26.10;12.52;;;;;;;5.70;72.65;100150.78;343465;28;1112;-73
2022/12/01 00:14:27;;;;;;;25.50;12.15;;;;;;;5.72;72.78;100147.31;341808;28;1045;-73
2022/12/01 00:14:39;;;;;;;25.38;11.93;;;;;;;5.75;73.04;100151.59;342093;28;3554;-74
2022/12/01 00:14:59;;;;;;;24.63;11.90;;;;;;;5.73;72.76;100148.19;343263;28;1866;-73
2022/12/01 00:15:12;;;;;;;25.10;12.52;;;;;;;5.59;72.68;100151.69;343625;28;1734;-73
2022/12/01 00:15:30;;;;;;;25.13;12.93;;;;;;;5.55;72.29;100144.84;343809;28;1209;-73
2022/12/01 00:15:42;;;;;;;23.70;12.88;;;;;;;5.59;72.52;100151.69;341221;29;1024;-73
2022/12/01 00:15:54;;;;;;;23.65;12.50;;;;;;;5.56;72.41;100150.84;340958;29;1019;-73
2022/12/01 00:16:14;;;;;;;24.75;12.27;;;;;;;5.52;72.89;100149.16;341022;29;1085;-73
2022/12/01 00:16:26;;;;;;;24.08;12.18;;;;;;;5.49;72.24;100150.00;342554;28;1087;-73
2022/12/01 00:16:39;;;;;;;23.27;12.18;;;;;;;5.32;72.21;100154.38;342230;28;1032;-73
2022/12/01 00:16:51;;;;;;;23.23;12.25;;;;;;;5.34;72.37;100153.50;342277;28;1839;-73
2022/12/01 00:17:04;;;;;;;23.65;12.20;;;;;;;5.40;72.89;100150.03;343493;28;1072;-73
2022/12/01 00:17:16;;;;;;;23.17;12.52;;;;;;;5.39;72.47;100153.47;343720;28;1436;-73
2022/12/01 00:17:29;;;;;;;24.25;12.48;;;;;;;5.42;72.37;100158.63;342859;28;1111;-73
2022/12/01 00:17:42;;;;;;;24.77;12.27;;;;;;;5.44;72.80;100146.59;342464;28;1298;-73
2022/12/01 00:17:54;;;;;;;24.38;12.32;;;;;;;5.39;72.74;100144.03;343994;28;1277;-73
2022/12/01 00:18:08;;;;;;;24.27;12.50;;;;;;;5.38;72.46;100150.03;343564;28;1137;-73
2022/12/01 00:18:20;;;;;;;23.77;12.50;;;;;;;5.45;72.95;100148.28;342656;28;929;-73
2022/12/01 00:18:32;;;;;;;23.33;12.02;;;;;;;5.48;72.53;100147.44;341215;28;1437;-73
2022/12/01 00:18:48;;;;;;;23.42;12.35;;;;;;;5.50;72.04;100148.28;340834;29;1240;-73
2022/12/01 00:19:01;;;;;;;23.75;12.80;;;;;;;5.48;72.43;100150.88;341157;29;1040;-71
2022/12/01 00:19:13;;;;;;;22.08;12.23;;;;;;;5.54;72.54;100148.28;341006;29;1156;-71
2022/12/01 00:19:26;;;;;;;23.05;12.07;;;;;;;5.53;71.68;100154.31;339958;29;806;-71
2022/12/01 00:19:38;;;;;;;24.35;11.95;;;;;;;5.54;72.10;100152.56;339526;29;1166;-71
2022/12/01 00:19:50;;;;;;;22.40;11.70;;;;;;;5.56;71.75;100146.53;339915;29;999;-71
2022/12/01 00:20:03;;;;;;;20.90;12.00;;;;;;;5.58;72.03;100149.13;339577;29;1153;-72
2022/12/01 00:20:15;;;;;;;22.65;12.55;;;;;;;5.57;71.91;100148.28;338535;29;1140;-72
2022/12/01 00:20:28;;;;;;;23.13;12.45;;;;;;;5.52;71.16;100154.31;340123;29;1108;-72
2022/12/01 00:20:40;;;;;;;23.50;12.30;;;;;;;5.54;71.11;100148.28;339910;29;1015;-72
2022/12/01 00:20:54;;;;;;;22.67;11.90;;;;;;;5.59;71.60;100155.97;339764;29;1096;-72
2022/12/01 00:21:17;;;;;;;22.42;11.93;;;;;;;5.62;71.35;100149.97;341097;29;1144;-72
2022/12/01 00:21:29;;;;;;;23.05;12.13;;;;;;;5.69;71.70;100149.06;341986;28;1130;-72
2022/12/01 00:21:41;;;;;;;23.05;11.93;;;;;;;5.66;70.94;100151.66;342279;28;1058;-72
2022/12/01 00:21:53;;;;;;;21.92;11.35;;;;;;;5.55;71.71;100149.13;339727;29;1233;-73
2022/12/01 00:22:05;;;;;;;20.73;10.82;;;;;;;5.58;70.87;100143.97;339732;29;1209;-73
2022/12/01 00:22:18;;;;;;;20.77;11.25;;;;;;;5.62;71.73;100155.97;340232;29;1659;-73
2022/12/01 00:22:30;;;;;;;22.33;11.68;;;;;;;5.67;71.09;100153.38;340688;29;1042;-73
2022/12/01 00:22:46;;;;;;;22.92;12.25;;;;;;;5.67;71.18;100153.38;341904;28;718;-73
2022/12/01 00:22:58;;;;;;;22.63;12.50;;;;;;;5.72;71.67;100146.47;342444;28;1343;-73
2022/12/01 00:23:10;;;;;;;20.58;11.52;;;;;;;5.74;70.69;100153.34;342648;28;2002;-73
2022/12/01 00:23:22;;;;;;;19.88;11.25;;;;;;;5.76;70.55;100149.03;342715;28;1865;-72
2022/12/01 00:23:34;;;;;;;21.23;11.40;;;;;;;5.79;71.18;100149.03;342826;28;1832;-71
2022/12/01 00:23:51;;;;;;;22.27;11.65;;;;;;;5.83;70.69;100149.00;343470;28;1047;-71
2022/12/01 00:24:04;;;;;;;22.80;12.02;;;;;;;5.49;70.52;100141.41;343586;28;2288;-71
2022/12/01 00:24:15;;;;;;;22.10;12.00;;;;;;;5.57;70.57;100147.38;343644;28;1083;-71
2022/12/01 00:24:27;;;;;;;23.43;12.03;;;;;;;5.55;70.71;100149.13;341233;28;1852;-72
2022/12/01 00:24:39;;;;;;;22.95;12.18;;;;;;;5.56;70.94;100145.69;342242;28;1865;-73
2022/12/01 00:24:52;;;;;;;23.55;12.50;;;;;;;5.57;71.54;100148.28;342657;28;917;-73
2022/12/01 00:25:04;;;;;;;23.70;12.38;;;;;;;5.58;71.11;100149.97;342097;28;1150;-73
2022/12/01 00:25:17;;;;;;;22.95;12.02;;;;;;;5.62;70.68;100139.66;341884;28;1685;-73
2022/12/01 00:25:30;;;;;;;21.80;12.07;;;;;;;5.67;70.98;100146.47;339599;29;1741;-73
2022/12/01 00:25:42;;;;;;;21.67;12.05;;;;;;;5.70;70.83;100148.22;340725;29;1705;-73
2022/12/01 00:26:01;;;;;;;22.67;11.63;;;;;;;5.64;70.57;100151.66;340842;29;1030;-73
2022/12/01 00:26:17;;;;;;;25.13;12.13;;;;;;;5.57;70.88;100144.81;340764;29;1737;-73
2022/12/01 00:26:29;;;;;;;24.10;12.00;;;;;;;5.54;70.74;100143.09;340043;29;1098;-71
2022/12/01 00:26:41;;;;;;;22.90;12.05;;;;;;;5.58;71.37;100144.81;340555;28;1769;-71
2022/12/01 00:26:53;;;;;;;24.02;12.00;;;;;;;5.59;71.10;100146.53;341150;29;3520;-71
2022/12/01 00:27:05;;;;;;;24.15;11.85;;;;;;;5.57;71.07;100147.38;340713;29;1325;-71
2022/12/01 00:27:17;;;;;;;22.45;11.70;;;;;;;5.55;71.22;100143.97;339617;29;1391;-72
2022/12/01 00:27:29;;;;;;;22.80;11.82;;;;;;;5.47;70.81;100145.72;339537;29;1479;-72
2022/12/01 00:27:45;;;;;;;23.27;12.13;;;;;;;5.44;71.54;100146.59;340081;28;1800;-72
2022/12/01 00:27:58;;;;;;;22.25;12.32;;;;;;;5.51;71.53;100153.41;340999;29;1144;-72
2022/12/01 00:28:10;;;;;;;22.98;12.20;;;;;;;5.49;71.01;100144.84;340862;29;1181;-72
2022/12/01 00:28:22;;;;;;;24.27;12.18;;;;;;;5.54;71.32;100142.25;339822;29;1686;-72
2022/12/01 00:28:34;;;;;;;23.25;11.60;;;;;;;5.49;72.01;100144.84;340676;29;1097;-72
2022/12/01 00:28:50;;;;;;;21.83;11.35;;;;;;;5.56;72.25;100145.69;339827;29;1151;-71
2022/12/01 00:29:02;;;;;;;20.55;11.40;;;;;;;5.63;71.97;100146.50;341368;29;853;-71
2022/12/01 00:29:15;;;;;;;20.85;11.65;;;;;;;5.66;71.58;100143.94;340859;29;1242;-71
2022/12/01 00:29:27;;;;;;;20.95;11.38;;;;;;;5.69;71.34;100152.50;340199;29;770;-71
2022/12/01 00:29:39;;;;;;;20.38;11.38;;;;;;;5.75;71.17;100152.47;339789;29;1260;-71
2022/12/01 00:29:51;;;;;;;20.45;11.27;;;;;;;5.77;70.98;100145.56;339740;29;1199;-71
2022/12/01 00:30:05;;;;;;;21.55;11.25;;;;;;;5.76;70.68;100148.19;339714;28;2165;-72
2022/12/01 00:30:20;;;;;;;24.08;12.02;;;;;;;5.52;70.32;100154.31;341268;28;1535;-72
2022/12/01 00:30:31;;;;;;;23.88;12.35;;;;;;;5.57;70.56;100153.44;339691;29;1189;-72
2022/12/01 00:30:43;;;;;;;22.27;12.20;;;;;;;5.63;71.11;100151.66;337548;29;1808;-72
2022/12/01 00:30:55;;;;;;;21.15;11.80;;;;;;;5.60;70.76;100143.09;339882;29;1764;-72
2022/12/01 00:31:08;;;;;;;21.10;11.48;;;;;;;5.66;70.88;100149.09;341217;29;1179;-72
2022/12/01 00:31:21;;;;;;;21.58;11.57;;;;;;;5.68;70.32;100149.94;340575;29;1588;-72
2022/12/01 00:31:33;;;;;;;22.50;11.50;;;;;;;5.73;70.85;100143.88;341823;28;1211;-72
2022/12/01 00:31:46;;;;;;;22.30;11.63;;;;;;;5.78;70.04;100146.44;342549;28;1063;-72
2022/12/01 00:31:58;;;;;;;24.25;11.95;;;;;;;5.79;70.35;100150.72;342469;28;1056;-72
2022/12/01 00:32:10;;;;;;;25.15;12.20;;;;;;;5.85;70.57;100148.13;341776;28;1902;-72
2022/12/01 00:32:22;;;;;;;22.05;11.50;;;;;;;5.85;70.39;100158.44;342457;28;1927;-72
2022/12/01 00:32:34;;;;;;;20.75;11.52;;;;;;;5.87;70.45;100156.69;343960;28;1906;-72
2022/12/01 00:32:46;;;;;;;21.55;11.77;;;;;;;5.86;70.75;100152.44;343838;28;1066;-72
2022/12/01 00:32:58;;;;;;;22.85;12.07;;;;;;;5.84;70.39;100154.16;343748;28;1301;-72
2022/12/01 00:33:11;;;;;;;22.48;12.02;;;;;;;5.87;70.81;100153.28;342775;28;1802;-72
2022/12/01 00:33:23;;;;;;;22.00;11.90;;;;;;;5.81;70.46;100146.41;341153;28;1529;-72
2022/12/01 00:33:35;;;;;;;22.38;11.85;;;;;;;5.86;70.69;100154.16;341603;29;1142;-72
2022/12/01 00:33:47;;;;;;;22.08;11.50;;;;;;;5.89;71.03;100149.81;340979;28;1941;-72
2022/12/01 00:33:59;;;;;;;22.58;11.90;;;;;;;5.89;70.94;100149.81;341135;29;1032;-72
2022/12/01 00:34:22;;;;;;;24.60;12.55;;;;;;;5.94;71.13;100154.97;339737;29;1059;-72
2022/12/01 00:34:34;;;;;;;22.23;12.07;;;;;;;5.94;70.76;100153.22;339156;29;1675;-72
2022/12/01 00:34:46;;;;;;;22.27;11.85;;;;;;;5.97;71.21;100153.22;339503;29;1247;-72
2022/12/01 00:34:58;;;;;;;23.75;11.90;;;;;;;5.95;71.04;100154.97;339389;29;1040;-71
2022/12/01 00:35:11;;;;;;;21.90;11.45;;;;;;;5.83;69.78;100144.69;338610;29;1964;-71
2022/12/01 00:35:23;;;;;;;21.17;11.38;;;;;;;5.73;70.56;100146.44;337988;29;1896;-72
2022/12/01 00:35:35;;;;;;;21.33;11.68;;;;;;;5.76;71.22;100148.19;337184;29;1146;-72
2022/12/01 00:35:47;;;;;;;22.67;12.25;;;;;;;5.82;70.73;100152.47;338298;29;1883;-72
2022/12/01 00:36:00;;;;;;;22.75;12.38;;;;;;;5.87;70.64;100150.69;339811;29;959;-72
2022/12/01 00:36:12;;;;;;;23.10;12.18;;;;;;;5.85;70.69;100153.28;340518;29;1273;-72
2022/12/01 00:36:24;;;;;;;22.45;12.05;;;;;;;5.78;70.18;100149.88;341215;29;1265;-72
2022/12/01 00:36:36;;;;;;;21.95;12.00;;;;;;;5.81;70.58;100149.00;341154;28;1725;-72
2022/12/01 00:36:48;;;;;;;21.73;12.10;;;;;;;5.80;70.24;100150.72;340940;29;1112;-72
2022/12/01 00:37:00;;;;;;;20.10;11.52;;;;;;;5.84;70.42;100151.56;340480;29;1920;-72
2022/12/01 00:37:12;;;;;;;20.33;11.48;;;;;;;5.86;70.36;100152.44;340317;29;1075;-72
2022/12/01 00:37:24;;;;;;;21.65;11.55;;;;;;;5.87;70.96;100155.84;339795;28;2014;-71
2022/12/01 00:37:37;;;;;;;21.75;11.77;;;;;;;5.91;71.02;100149.81;340717;29;1790;-72
2022/12/01 00:37:49;;;;;;;20.75;11.80;;;;;;;5.94;70.40;100158.41;340940;29;1068;-72
2022/12/01 00:38:01;;;;;;;20.55;11.63;;;;;;;5.96;70.21;100151.53;339718;29;1255;-72
2022/12/01 00:38:13;;;;;;;20.42;11.60;;;;;;;5.89;70.28;100149.81;339557;29;1044;-72
2022/12/01 00:38:26;;;;;;;22.42;12.05;;;;;;;5.90;69.94;100151.53;338970;29;1775;-72
2022/12/01 00:38:38;;;;;;;23.83;12.23;;;;;;;5.93;69.98;100153.22;339164;29;1805;-72
2022/12/01 00:38:52;;;;;;;23.27;12.25;;;;;;;5.91;70.51;100148.06;341837;28;1929;-72
2022/12/01 00:39:04;;;;;;;22.05;12.23;;;;;;;5.80;70.04;100152.47;340952;28;1828;-72
2022/12/01 00:39:16;;;;;;;21.95;12.23;;;;;;;5.85;69.94;100158.44;342756;28;1328;-72
2022/12/01 00:39:29;;;;;;;22.20;12.65;;;;;;;5.87;70.63;100156.69;343259;28;1682;-71
2022/12/01 00:39:40;;;;;;;21.90;12.40;;;;;;;5.87;70.41;100145.53;342726;28;1744;-71
2022/12/01 00:39:53;;;;;;;22.13;11.95;;;;;;;5.92;70.02;100152.38;343855;28;1019;-71
2022/12/01 00:40:06;;;;;;;21.48;11.88;;;;;;;5.93;70.61;100151.50;344332;28;1089;-71
2022/12/01 00:40:18;;;;;;;22.50;11.98;;;;;;;5.95;70.46;100154.13;344732;28;1278;-72
2022/12/01 00:40:30;;;;;;;23.58;12.00;;;;;;;5.98;70.28;100154.97;344812;28;1059;-72
2022/12/01 00:40:42;;;;;;;23.30;12.20;;;;;;;6.00;70.50;100150.66;344947;28;1062;-72
2022/12/01 00:40:54;;;;;;;21.92;11.80;;;;;;;5.97;70.23;100153.22;342898;28;1380;-72
2022/12/01 00:41:07;;;;;;;22.10;11.95;;;;;;;5.96;70.55;100155.84;341379;28;1807;-72
2022/12/01 00:41:19;;;;;;;23.17;11.95;;;;;;;6.00;70.06;100158.38;342897;28;1517;-72
2022/12/01 00:41:32;;;;;;;25.67;11.95;;;;;;;5.94;70.67;100157.53;341510;28;1284;-72
2022/12/01 00:41:44;;;;;;;25.13;11.95;;;;;;;5.99;70.34;100150.66;342367;28;1232;-72
2022/12/01 00:41:56;;;;;;;24.38;12.32;;;;;;;5.99;70.19;100154.09;342801;28;1634;-72
2022/12/01 00:42:08;;;;;;;23.67;12.50;;;;;;;5.99;70.41;100155.81;342507;28;1344;-72
2022/12/01 00:42:24;;;;;;;21.77;11.80;;;;;;;5.89;69.75;100160.13;342556;28;1235;-72
2022/12/01 00:42:36;;;;;;;22.05;11.45;;;;;;;5.93;69.47;100154.09;342218;28;1205;-72
2022/12/01 00:42:50;;;;;;;25.00;12.00;;;;;;;5.91;69.30;100158.41;340896;29;1419;-72
2022/12/01 00:43:02;;;;;;;25.85;11.98;;;;;;;5.93;69.47;100156.66;339707;28;1824;-72
2022/12/01 00:43:14;;;;;;;24.58;12.35;;;;;;;5.93;70.24;100156.66;342112;28;1482;-72
2022/12/01 00:43:26;;;;;;;23.27;12.07;;;;;;;5.62;69.47;100152.56;342087;28;1183;-72
2022/12/01 00:43:38;;;;;;;23.58;12.05;;;;;;;5.71;70.03;100155.06;342324;28;1092;-72
2022/12/01 00:43:51;;;;;;;23.48;11.98;;;;;;;5.70;69.88;100148.22;341313;28;1030;-72
2022/12/01 00:44:03;;;;;;;22.20;11.95;;;;;;;5.74;69.56;100149.91;340564;29;1979;-72
2022/12/01 00:44:15;;;;;;;22.55;12.10;;;;;;;5.79;69.87;100150.72;340823;29;1680;-71
2022/12/01 00:44:27;;;;;;;22.25;11.93;;;;;;;5.80;70.00;100153.31;342310;28;1080;-71
2022/12/01 00:44:39;;;;;;;20.73;11.70;;;;;;;5.84;70.35;100156.72;341914;28;1679;-71
2022/12/01 00:44:51;;;;;;;21.30;11.85;;;;;;;5.88;69.90;100158.44;341933;28;1874;-71
2022/12/01 00:45:04;;;;;;;22.85;12.23;;;;;;;5.91;69.65;100158.41;342547;28;1797;-71
2022/12/01 00:45:16;;;;;;;21.70;12.05;;;;;;;5.91;70.40;100152.38;342657;28;1660;-71
2022/12/01 00:45:28;;;;;;;20.65;11.77;;;;;;;5.87;69.75;100156.69;342337;28;1618;-71
2022/12/01 00:45:42;;;;;;;20.77;11.50;;;;;;;5.78;69.68;100151.59;342123;28;1641;-72
2022/12/01 00:45:55;;;;;;;22.42;12.38;;;;;;;5.83;69.10;100155.00;342229;28;1353;-72
2022/12/01 00:46:07;;;;;;;23.42;12.85;;;;;;;5.86;69.53;100151.56;341485;28;1883;-72
2022/12/01 00:46:19;;;;;;;22.45;12.40;;;;;;;5.87;69.87;100156.69;340106;29;1253;-72
2022/12/01 00:46:32;;;;;;;20.77;11.95;;;;;;;5.67;68.79;100150.78;340448;29;1069;-72
2022/12/01 00:46:44;;;;;;;20.15;11.50;;;;;;;5.62;69.04;100150.81;339763;29;1510;-72
2022/12/01 00:46:56;;;;;;;20.00;11.20;;;;;;;5.66;69.89;100151.66;339734;29;1239;-72
2022/12/01 00:47:08;;;;;;;20.48;11.30;;;;;;;5.70;69.62;100151.63;339971;29;1060;-72
2022/12/01 00:47:20;;;;;;;20.70;11.35;;;;;;;5.75;69.70;100151.59;339123;29;1735;-72
2022/12/01 00:47:32;;;;;;;21.20;11.27;;;;;;;5.76;69.79;100154.19;337994;29;1708;-72
2022/12/01 00:47:44;;;;;;;22.50;11.52;;;;;;;5.73;69.78;100153.34;339814;29;1523;-72
2022/12/01 00:47:56;;;;;;;24.30;11.82;;;;;;;5.74;69.90;100152.50;341437;28;1222;-72
2022/12/01 00:48:08;;;;;;;23.67;11.68;;;;;;;5.77;70.14;100150.72;342320;28;1067;-72
2022/12/01 00:48:21;;;;;;;21.25;11.52;;;;;;;5.84;70.19;100148.16;341201;28;1827;-72
2022/12/01 00:48:33;;;;;;;20.15;11.20;;;;;;;5.87;69.72;100154.13;342174;28;1250;-72
2022/12/01 00:48:45;;;;;;;20.10;11.43;;;;;;;5.91;69.62;100150.66;342663;28;1204;-71
2022/12/01 00:48:57;;;;;;;19.25;11.23;;;;;;;5.92;69.10;100152.38;342366;28;1087;-71
2022/12/01 00:49:12;;;;;;;19.25;11.32;;;;;;;5.96;69.59;100154.13;342497;28;1035;-71
2022/12/01 00:49:24;;;;;;;19.60;11.15;;;;;;;5.99;69.72;100154.09;342007;28;1152;-71
2022/12/01 00:49:36;;;;;;;19.77;11.00;;;;;;;6.03;69.73;100146.34;342229;28;1583;-71
2022/12/01 00:49:48;;;;;;;20.52;10.88;;;;;;;6.05;69.34;100147.19;342236;28;1188;-71
2022/12/01 00:50:01;;;;;;;21.02;11.38;;;;;;;6.02;69.56;100149.75;342586;28;1230;-71
2022/12/01 00:50:13;;;;;;;20.80;11.60;;;;;;;6.05;69.21;100154.94;342037;28;2029;-71
2022/12/01 00:50:25;;;;;;;20.42;11.32;;;;;;;6.04;69.33;100154.06;342257;28;2265;-71
2022/12/01 00:50:37;;;;;;;19.65;11.05;;;;;;;6.08;69.18;100152.34;341041;28;1782;-72
2022/12/01 00:50:53;;;;;;;20.63;11.38;;;;;;;5.93;68.97;100156.66;342018;28;1247;-72
2022/12/01 00:51:05;;;;;;;20.77;11.63;;;;;;;5.81;68.95;100151.56;342397;28;1252;-72
2022/12/01 00:51:17;;;;;;;21.48;11.93;;;;;;;5.85;69.07;100153.28;342317;28;1395;-72
2022/12/01 00:51:29;;;;;;;20.20;11.35;;;;;;;5.92;68.84;100148.97;344168;28;725;-72
2022/12/01 00:51:42;;;;;;;19.85;11.25;;;;;;;5.94;68.99;100158.41;342874;28;1800;-72
2022/12/01 00:51:54;;;;;;;20.80;11.18;;;;;;;5.93;69.00;100155.81;344131;28;1075;-72
2022/12/01 00:52:06;;;;;;;21.70;11.43;;;;;;;5.94;68.67;100154.97;342905;28;1699;-72
2022/12/01 00:52:19;;;;;;;21.42;11.70;;;;;;;5.92;68.91;100159.28;342363;28;1112;-72
2022/12/01 00:52:31;;;;;;;22.00;11.77;;;;;;;5.81;68.22;100151.56;342125;28;1258;-72
2022/12/01 00:52:43;;;;;;;21.38;11.73;;;;;;;5.83;68.04;100157.59;342494;28;1108;-72
2022/12/01 00:52:55;;;;;;;20.10;11.48;;;;;;;5.79;68.47;100143.00;340768;29;1388;-72
2022/12/01 00:53:07;;;;;;;19.65;11.45;;;;;;;5.86;68.43;100160.16;339649;29;1642;-72
2022/12/01 00:53:20;;;;;;;23.35;11.45;;;;;;;5.86;68.71;100159.31;340741;28;1562;-72
2022/12/01 00:53:32;;;;;;;23.83;11.70;;;;;;;5.88;68.27;100158.44;339645;29;1830;-72
2022/12/01 00:53:44;;;;;;;22.65;11.60;;;;;;;5.92;68.71;100159.28;339529;28;2498;-72
2022/12/01 00:53:57;;;;;;;20.35;11.57;;;;;;;5.94;68.05;100158.41;340378;28;1613;-72
2022/12/01 00:54:09;;;;;;;21.15;11.80;;;;;;;5.93;68.47;100161.81;340641;29;1097;-72
2022/12/01 00:54:21;;;;;;;21.25;11.73;;;;;;;5.97;68.78;100154.97;339666;29;1286;-72
2022/12/01 00:54:33;;;;;;;20.83;11.45;;;;;;;5.96;69.29;100155.84;339648;29;1978;-72
2022/12/01 00:54:45;;;;;;;21.55;11.55;;;;;;;5.98;69.30;100154.97;339221;29;1753;-72
2022/12/01 00:54:57;;;;;;;21.92;11.68;;;;;;;6.02;69.09;100162.66;339675;28;1667;-72
2022/12/01 00:55:09;;;;;;;21.20;11.25;;;;;;;6.02;68.68;100157.50;339721;29;1030;-72
2022/12/01 00:55:21;;;;;;;21.92;11.20;;;;;;;6.00;69.49;100158.38;339603;29;1150;-72
2022/12/01 00:55:34;;;;;;;22.40;11.65;;;;;;;6.03;69.29;100156.66;339576;29;1085;-72
2022/12/01 00:55:46;;;;;;;21.15;11.98;;;;;;;6.06;69.30;100159.25;339500;28;2223;-72
2022/12/01 00:55:58;;;;;;;20.67;11.90;;;;;;;6.02;68.06;100160.09;339850;28;1796;-72
2022/12/01 00:56:10;;;;;;;20.33;11.68;;;;;;;5.96;68.77;100154.13;340699;29;1707;-72
2022/12/01 00:56:22;;;;;;;19.70;11.32;;;;;;;5.98;68.79;100160.13;341667;28;1476;-72
2022/12/01 00:56:34;;;;;;;20.67;11.52;;;;;;;6.02;68.83;100160.09;341874;28;1891;-72
2022/12/01 00:56:46;;;;;;;21.38;11.98;;;;;;;6.05;69.34;100162.66;343455;28;1367;-72
2022/12/01 00:56:59;;;;;;;21.25;11.68;;;;;;;6.07;68.87;100159.19;343386;28;1202;-72
2022/12/01 00:57:12;;;;;;;21.92;11.70;;;;;;;6.09;69.59;100159.19;343135;28;1772;-72
2022/12/01 00:57:23;;;;;;;22.23;12.02;;;;;;;6.13;69.55;100163.47;343370;28;1640;-72
2022/12/01 00:57:35;;;;;;;22.77;12.10;;;;;;;6.15;69.00;100165.16;343220;28;1609;-72
2022/12/01 00:57:47;;;;;;;22.45;12.05;;;;;;;6.02;69.29;100166.13;343553;28;1063;-72
2022/12/01 00:57:59;;;;;;;21.55;11.80;;;;;;;5.94;69.30;100160.13;343381;28;1292;-72
2022/12/01 00:58:12;;;;;;;20.88;11.60;;;;;;;5.98;69.05;100167.88;342575;28;1762;-72
2022/12/01 00:58:24;;;;;;;20.77;11.65;;;;;;;5.96;69.35;100161.84;343278;28;1126;-72
2022/12/01 00:58:36;;;;;;;21.95;11.95;;;;;;;5.96;69.54;100161.84;342343;28;1078;-72
2022/12/01 00:58:48;;;;;;;21.55;11.85;;;;;;;5.72;69.29;100167.97;341041;29;1055;-72
2022/12/01 00:59:00;;;;;;;22.15;11.57;;;;;;;5.79;69.74;100163.63;340710;29;1037;-72
2022/12/01 00:59:12;;;;;;;23.15;11.60;;;;;;;5.79;69.84;100163.63;342438;28;1226;-72
2022/12/01 00:59:25;;;;;;;22.02;11.43;;;;;;;5.77;70.37;100160.19;341483;28;2495;-72
2022/12/01 00:59:37;;;;;;;21.60;11.80;;;;;;;5.81;70.68;100164.47;343341;28;1718;-72
2022/12/01 00:59:49;;;;;;;21.42;11.77;;;;;;;5.78;70.51;100161.94;342667;28;1108;-72
2022/12/01 01:00:03;;;;;;;21.85;12.02;;;;;;;5.84;70.47;100164.47;340847;29;1069;-72
2022/12/01 01:00:16;;;;;;;21.77;11.85;;;;;;;5.88;70.34;100162.75;341382;28;1654;-72
2022/12/01 01:00:29;;;;;;;21.67;11.73;;;;;;;5.91;70.36;100163.56;341021;28;1891;-72
2022/12/01 01:00:41;;;;;;;22.08;11.82;;;;;;;5.92;69.92;100164.44;341440;28;1834;-72
2022/12/01 01:01:00;;;;;;;21.48;11.48;;;;;;;5.95;69.99;100174.75;342597;28;1454;-72
2022/12/01 01:01:12;;;;;;;21.85;11.90;;;;;;;5.96;69.67;100168.75;342037;28;1278;-72
2022/12/01 01:01:25;;;;;;;24.02;12.07;;;;;;;5.97;69.78;100163.56;342684;28;1589;-72
2022/12/01 01:01:37;;;;;;;23.35;11.80;;;;;;;5.99;69.83;100166.13;341876;28;1042;-72